Time;durP1;ratioP1;P1;durP2;ratioP2;P2;SDS_P1;SDS_P2;PMS_P1;PMS_P2;Temp;Humidity;BMP_temperature;BMP_pressure;BME280_temperature;BME280_humidity;BME280_pressure;Samples;Min_cycle;Max_cycle;Signal;HPM_P1;HPM_P2
2021/06/30 00:02:26;;;;;;;7.03;5.82;;;;;;;22.68;48.16;99381.09;3640485;39;20443;-53
2021/06/30 00:05:08;;;;;;;7.32;5.78;;;;;;;22.66;48.19;99383.94;3625818;39;20440;-50
2021/06/30 00:07:47;;;;;;;8.25;5.80;;;;;;;22.53;48.71;99386.19;3635936;39;20424;-53
2021/06/30 00:10:27;;;;;;;7.10;5.72;;;;;;;22.35;48.64;99390.72;3638256;39;20451;-53
2021/06/30 00:13:07;;;;;;;8.95;6.40;;;;;;;22.14;49.22;99389.22;3613533;39;20430;-52
2021/06/30 00:15:47;;;;;;;7.88;6.05;;;;;;;22.18;49.67;99393.25;3637918;39;20474;-55
2021/06/30 00:18:28;;;;;;;8.80;6.38;;;;;;;22.12;49.63;99387.69;3641510;39;20419;-54
2021/06/30 00:21:08;;;;;;;6.78;6.00;;;;;;;22.16;49.87;99386.41;3643869;39;20419;-56
2021/06/30 00:23:48;;;;;;;7.07;6.30;;;;;;;22.19;49.48;99386.91;3623799;39;20413;-59
2021/06/30 00:26:28;;;;;;;9.13;6.05;;;;;;;22.16;50.04;99381.91;3644105;39;20451;-59
2021/06/30 00:29:09;;;;;;;8.20;5.75;;;;;;;22.17;49.88;99378.22;3623870;39;20417;-60
2021/06/30 00:31:49;;;;;;;7.53;6.25;;;;;;;22.19;49.44;99378.91;3603228;39;20424;-59
2021/06/30 00:34:29;;;;;;;7.97;6.43;;;;;;;22.21;49.38;99384.94;3623686;39;20422;-60
2021/06/30 00:37:08;;;;;;;9.00;6.10;;;;;;;22.18;49.67;99377.25;3623441;39;20433;-60
2021/06/30 00:39:48;;;;;;;8.25;6.20;;;;;;;22.09;49.99;99370.16;3644004;39;20438;-60
2021/06/30 00:42:30;;;;;;;7.55;5.95;;;;;;;22.04;50.33;99375.09;3623532;39;20410;-60
2021/06/30 00:45:16;;;;;;;7.78;6.57;;;;;;;22.06;50.13;99370.44;3629988;39;20472;-59
2021/06/30 00:47:55;;;;;;;7.95;6.15;;;;;;;22.12;49.71;99358.34;3644042;39;20418;-59
2021/06/30 00:50:36;;;;;;;8.85;6.57;;;;;;;22.08;49.83;99351.63;3623397;39;20685;-60
2021/06/30 00:53:17;;;;;;;7.93;6.65;;;;;;;21.98;50.07;99346.34;3623596;39;20413;-59
2021/06/30 00:55:57;;;;;;;7.93;7.13;;;;;;;21.88;51.41;99341.09;3620606;39;20459;-59
2021/06/30 00:58:36;;;;;;;6.60;5.90;;;;;;;21.94;51.13;99342.31;3643902;39;20455;-59
2021/06/30 01:01:16;;;;;;;7.80;6.45;;;;;;;21.91;51.27;99340.78;3623230;39;20926;-59
2021/06/30 01:03:56;;;;;;;7.93;5.68;;;;;;;21.95;51.09;99343.97;3644218;39;20438;-59
2021/06/30 01:06:36;;;;;;;6.30;5.70;;;;;;;21.93;50.96;99343.28;3643994;39;20431;-59
2021/06/30 01:09:16;;;;;;;8.60;6.07;;;;;;;21.98;51.04;99346.34;3644080;39;20442;-59
2021/06/30 01:12:02;;;;;;;10.05;6.38;;;;;;;21.97;50.77;99350.00;3633686;39;20070;-58
2021/06/30 01:14:48;;;;;;;7.93;6.32;;;;;;;21.86;51.06;99347.53;3633678;39;20090;-59
2021/06/30 01:17:29;;;;;;;9.02;6.70;;;;;;;21.90;51.05;99354.28;3628328;39;20991;-60
2021/06/30 01:20:09;;;;;;;6.88;6.18;;;;;;;21.94;50.97;99350.31;3623758;39;20437;-59
2021/06/30 01:25:43;;;;;;;8.02;5.82;;;;;;;22.08;50.43;99322.28;3638228;39;20679;-59
2021/06/30 01:28:24;;;;;;;6.90;5.95;;;;;;;22.15;50.03;99310.81;3623270;39;20433;-58
2021/06/30 01:31:07;;;;;;;6.07;5.47;;;;;;;22.10;50.20;99302.44;3643893;39;20434;-58
2021/06/30 01:33:46;;;;;;;6.18;5.35;;;;;;;22.17;50.11;99302.66;3644122;39;20851;-59
2021/06/30 01:36:26;;;;;;;6.68;5.35;;;;;;;22.18;50.06;99294.50;3643527;39;20422;-59
2021/06/30 01:39:06;;;;;;;6.63;5.40;;;;;;;22.19;49.85;99290.81;3623959;39;20436;-59
2021/06/30 01:41:47;;;;;;;8.20;6.05;;;;;;;22.23;50.16;99285.16;3644034;39;20435;-59
2021/06/30 01:44:27;;;;;;;6.07;5.43;;;;;;;22.27;50.26;99298.03;3645141;39;20414;-59
2021/06/30 01:47:07;;;;;;;5.90;5.30;;;;;;;22.25;50.38;99301.88;3643952;39;20426;-58
2021/06/30 01:49:47;;;;;;;6.95;5.10;;;;;;;22.21;49.89;99304.84;3644001;39;20442;-59
2021/06/30 01:52:29;;;;;;;6.28;5.47;;;;;;;22.21;50.29;99293.34;3644567;39;20511;-59
2021/06/30 01:55:17;;;;;;;6.65;5.22;;;;;;;22.24;49.83;99286.84;3644251;39;20462;-59
2021/06/30 01:57:57;;;;;;;6.22;5.57;;;;;;;22.26;50.22;99276.84;3623355;39;20425;-59
2021/06/30 02:00:38;;;;;;;5.93;4.93;;;;;;;22.34;50.06;99277.75;3633733;39;20440;-59
2021/06/30 02:03:17;;;;;;;6.43;5.05;;;;;;;22.45;49.95;99264.13;3644061;39;20418;-59
2021/06/30 02:05:57;;;;;;;6.07;5.18;;;;;;;22.53;49.36;99266.00;3623419;39;20437;-59
2021/06/30 02:08:36;;;;;;;7.28;5.90;;;;;;;22.56;49.65;99268.34;3643917;39;20427;-58
2021/06/30 02:11:17;;;;;;;6.20;5.40;;;;;;;22.58;49.54;99271.72;3623486;39;20417;-58
2021/06/30 02:13:56;;;;;;;7.85;5.20;;;;;;;22.53;50.14;99276.69;3623342;39;20433;-58
2021/06/30 02:16:37;;;;;;;8.27;5.57;;;;;;;22.48;49.88;99274.47;3643739;39;20435;-59
2021/06/30 02:19:17;;;;;;;7.97;5.70;;;;;;;22.47;50.22;99290.66;3623469;39;20414;-59
2021/06/30 02:21:57;;;;;;;6.60;5.93;;;;;;;22.54;50.17;99314.94;3644458;39;20419;-58
2021/06/30 02:24:37;;;;;;;7.18;5.68;;;;;;;22.47;50.07;99376.13;3623888;39;20438;-57
2021/06/30 02:27:17;;;;;;;8.05;5.65;;;;;;;22.46;50.44;99470.59;3645500;39;20660;-59
2021/06/30 02:29:57;;;;;;;9.13;7.10;;;;;;;22.46;50.66;99459.91;3645185;39;20418;-59
2021/06/30 02:32:37;;;;;;;8.73;5.90;;;;;;;22.42;50.98;99442.53;3644453;39;20427;-59
2021/06/30 02:35:18;;;;;;;10.85;6.13;;;;;;;22.47;50.97;99435.72;3624199;39;20827;-58
2021/06/30 02:37:59;;;;;;;8.02;5.90;;;;;;;22.55;51.41;99434.97;3624304;39;20413;-60
2021/06/30 02:40:39;;;;;;;6.70;5.95;;;;;;;22.57;51.09;99430.31;3644829;39;20825;-58
2021/06/30 02:43:19;;;;;;;8.13;6.28;;;;;;;22.63;51.91;99407.47;3644930;39;20904;-59
2021/06/30 02:45:59;;;;;;;9.15;6.40;;;;;;;22.66;51.71;99402.63;3624094;39;20445;-59
2021/06/30 02:48:38;;;;;;;8.85;6.60;;;;;;;22.64;51.72;99412.66;3644874;39;20812;-58
2021/06/30 02:51:18;;;;;;;10.32;7.07;;;;;;;22.70;51.87;99401.34;3644771;39;20439;-58
2021/06/30 02:53:59;;;;;;;10.38;6.50;;;;;;;22.83;52.22;99403.63;3583531;39;20427;-56
2021/06/30 02:56:40;;;;;;;8.43;7.20;;;;;;;22.88;52.00;99387.09;3644666;39;20442;-59
2021/06/30 02:59:19;;;;;;;7.53;6.55;;;;;;;22.85;52.80;99398.13;3644773;39;20430;-58
2021/06/30 03:01:59;;;;;;;7.25;6.28;;;;;;;22.97;52.39;99389.69;3644803;39;20422;-59
2021/06/30 03:04:39;;;;;;;10.77;6.97;;;;;;;23.00;52.18;99380.50;3634189;39;20822;-56
2021/06/30 03:07:19;;;;;;;12.77;7.30;;;;;;;23.04;52.12;99384.53;3644359;39;20438;-59
2021/06/30 03:10:01;;;;;;;13.52;6.60;;;;;;;23.08;52.37;99377.88;3635245;39;20433;-59
2021/06/30 03:12:42;;;;;;;11.80;6.32;;;;;;;23.19;51.93;99390.97;3634247;39;20436;-59
2021/06/30 03:15:21;;;;;;;8.88;6.55;;;;;;;23.17;52.36;99387.63;3644826;39;20407;-59
2021/06/30 03:18:01;;;;;;;7.75;6.63;;;;;;;23.27;52.04;99372.28;3625257;39;20735;-59
2021/06/30 03:20:41;;;;;;;7.65;6.43;;;;;;;23.37;51.64;99372.16;3639013;39;20863;-60
2021/06/30 03:23:21;;;;;;;8.98;6.95;;;;;;;23.35;52.29;99361.63;3623871;39;20689;-60
2021/06/30 03:26:00;;;;;;;9.20;6.85;;;;;;;23.27;52.09;99356.22;3628098;39;20847;-60
2021/06/30 03:28:40;;;;;;;10.38;6.57;;;;;;;23.35;51.99;99358.94;3644624;39;20694;-60
2021/06/30 03:31:20;;;;;;;13.10;6.68;;;;;;;23.32;52.30;99347.72;3640218;39;20455;-59
2021/06/30 03:34:01;;;;;;;11.85;7.20;;;;;;;23.39;52.56;99344.25;3624749;39;20473;-60
2021/06/30 03:36:41;;;;;;;14.15;6.88;;;;;;;23.45;52.30;99342.75;3619646;39;20446;-61
2021/06/30 03:39:21;;;;;;;11.02;6.13;;;;;;;23.39;52.89;99354.94;3623897;39;20433;-60
2021/06/30 03:42:01;;;;;;;23.08;9.25;;;;;;;23.13;55.22;99386.25;3644458;39;20442;-60
2021/06/30 03:44:41;;;;;;;14.45;8.75;;;;;;;22.79;57.97;99384.38;3643072;31;20836;-60
2021/06/30 03:47:21;;;;;;;13.73;8.75;;;;;;;22.78;58.54;99377.34;3644635;39;20452;-59
2021/06/30 03:50:00;;;;;;;12.02;9.30;;;;;;;22.60;59.84;99381.91;3644526;39;20434;-60
2021/06/30 03:52:40;;;;;;;14.35;9.90;;;;;;;22.42;60.78;99381.94;3644732;39;20427;-66
2021/06/30 03:55:20;;;;;;;14.20;9.13;;;;;;;22.30;61.53;99388.53;3623986;39;20433;-65
2021/06/30 03:58:00;;;;;;;20.10;12.20;;;;;;;22.15;62.13;99392.72;3624228;39;20434;-66
2021/06/30 04:00:40;;;;;;;11.25;10.05;;;;;;;21.91;62.87;99375.47;3624019;39;20433;-65
2021/06/30 04:03:19;;;;;;;14.20;10.02;;;;;;;21.88;62.84;99362.44;3624284;39;20429;-65
2021/06/30 04:05:59;;;;;;;19.85;11.88;;;;;;;21.57;63.45;99321.94;3645701;39;20442;-65
2021/06/30 04:08:41;;;;;;;19.77;12.85;;;;;;;21.23;65.44;99294.19;3620733;39;1404260;-66
2021/06/30 04:11:20;;;;;;;23.55;15.10;;;;;;;21.22;65.56;99249.88;3624185;39;20425;-64
2021/06/30 04:14:00;;;;;;;27.17;16.23;;;;;;;21.18;66.70;99229.84;3623821;39;20446;-65
2021/06/30 04:16:44;;;;;;;43.92;14.43;;;;;;;20.89;66.88;99222.06;3624004;39;20445;-65
2021/06/30 04:19:23;;;;;;;33.47;19.15;;;;;;;20.69;67.98;99208.00;3623858;39;20429;-65
2021/06/30 04:22:03;;;;;;;25.98;16.48;;;;;;;20.54;68.98;99228.13;3623307;39;20438;-65
2021/06/30 04:24:43;;;;;;;36.03;20.70;;;;;;;20.32;69.75;99208.84;3624960;39;20434;-65
2021/06/30 04:27:23;;;;;;;37.38;20.80;;;;;;;20.23;70.02;99217.72;3645920;39;20691;-65
2021/06/30 04:30:09;;;;;;;64.78;32.70;;;;;;;20.07;71.90;99217.47;3644897;39;20712;-65
2021/06/30 04:32:50;;;;;;;44.00;25.75;;;;;;;20.01;72.30;99224.22;3644928;39;20407;-67
2021/06/30 04:35:30;;;;;;;43.50;26.70;;;;;;;19.92;73.30;99210.91;3624016;39;20441;-68
2021/06/30 04:38:10;;;;;;;45.72;25.65;;;;;;;19.96;73.25;99206.97;3644764;39;20438;-68
2021/06/30 04:40:54;;;;;;;41.92;23.80;;;;;;;20.17;73.27;99199.63;3644831;39;20424;-66
2021/06/30 04:43:35;;;;;;;51.65;27.23;;;;;;;20.21;73.33;99206.38;3624001;39;20469;-67
2021/06/30 04:46:15;;;;;;;62.55;35.60;;;;;;;20.22;73.76;99216.03;3623796;39;20847;-68
2021/06/30 04:48:55;;;;;;;54.78;29.88;;;;;;;20.22;74.42;99232.00;3634209;39;20463;-67
2021/06/30 04:51:39;;;;;;;62.80;32.17;;;;;;;20.36;74.31;99242.16;3644737;39;20430;-69
2021/06/30 04:54:48;;;;;;;48.60;27.25;;;;;;;20.37;74.05;99248.31;3644764;39;20434;-69
2021/06/30 04:57:28;;;;;;;50.83;27.80;;;;;;;20.41;73.98;99260.41;3624189;39;20445;-70
2021/06/30 05:00:10;;;;;;;36.65;22.10;;;;;;;20.30;74.77;99261.38;3644785;39;20419;-67
2021/06/30 05:02:50;;;;;;;36.55;21.00;;;;;;;20.29;74.72;99267.69;3624215;39;20426;-68
2021/06/30 05:05:34;;;;;;;33.92;20.73;;;;;;;20.32;75.30;99266.56;3623432;39;20867;-68
2021/06/30 05:08:14;;;;;;;34.40;20.55;;;;;;;20.34;75.59;99268.09;3645054;39;20426;-68
2021/06/30 05:10:54;;;;;;;26.30;17.90;;;;;;;20.35;75.46;99272.41;3642277;39;20463;-70
2021/06/30 05:13:34;;;;;;;31.30;19.40;;;;;;;20.39;75.63;99286.28;3635088;39;20494;-70
2021/06/30 05:16:13;;;;;;;30.98;18.92;;;;;;;20.37;76.11;99283.75;3644834;39;20434;-69
2021/06/30 05:18:55;;;;;;;27.77;18.15;;;;;;;20.43;76.35;99293.03;3623923;39;20422;-67
2021/06/30 05:21:35;;;;;;;24.20;17.35;;;;;;;20.56;75.93;99287.38;3632211;39;20431;-73
2021/06/30 05:24:14;;;;;;;19.95;14.93;;;;;;;20.58;75.90;99280.09;3622437;39;20433;-70
2021/06/30 05:26:54;;;;;;;24.25;16.45;;;;;;;20.65;75.92;99286.53;3634249;39;20824;-66
2021/06/30 05:29:46;;;;;;;20.73;14.07;;;;;;;20.72;76.19;99282.28;3634220;39;20445;-60
2021/06/30 05:32:26;;;;;;;21.73;14.82;;;;;;;20.64;76.40;99284.84;3613744;39;20427;-59
2021/06/30 05:35:06;;;;;;;24.10;16.15;;;;;;;20.62;76.46;99287.66;3644971;39;20422;-60
2021/06/30 05:37:47;;;;;;;18.85;12.88;;;;;;;20.64;76.65;99280.34;3644863;39;20419;-59
2021/06/30 05:40:27;;;;;;;19.70;14.43;;;;;;;20.63;77.07;99283.16;3624226;39;20840;-59
2021/06/30 05:43:15;;;;;;;24.90;16.60;;;;;;;20.68;76.75;99279.06;3623775;39;20481;-59
2021/06/30 05:46:32;;;;;;;20.92;15.13;;;;;;;20.96;76.49;99279.91;3624125;39;20421;-59
2021/06/30 05:49:13;;;;;;;16.73;12.73;;;;;;;21.08;76.41;99277.06;3644675;39;20673;-59
2021/06/30 05:51:52;;;;;;;17.50;13.40;;;;;;;21.19;76.65;99282.16;3624331;39;20417;-59
2021/06/30 05:54:31;;;;;;;18.27;13.37;;;;;;;21.32;76.75;99279.19;3608591;39;1412062;-59
2021/06/30 05:57:12;;;;;;;20.02;13.85;;;;;;;21.45;76.62;99280.50;3644697;39;20423;-58
2021/06/30 05:59:52;;;;;;;15.23;11.80;;;;;;;21.58;75.93;99285.44;3642388;39;20440;-60
2021/06/30 06:02:32;;;;;;;13.27;11.35;;;;;;;21.63;76.30;99276.97;3644632;39;20435;-59
2021/06/30 06:05:12;;;;;;;15.27;11.25;;;;;;;21.67;75.99;99289.03;3618969;39;20434;-60
2021/06/30 06:07:53;;;;;;;20.55;12.82;;;;;;;21.79;75.67;99282.47;3644915;39;20695;-59
2021/06/30 06:10:35;;;;;;;14.10;11.10;;;;;;;21.88;76.05;99286.88;3609063;39;20460;-61
2021/06/30 06:13:21;;;;;;;14.15;12.45;;;;;;;22.03;76.23;99281.81;3624715;39;20433;-59
2021/06/30 06:16:05;;;;;;;13.35;11.00;;;;;;;22.19;75.77;99277.47;3626685;39;20441;-55
2021/06/30 06:18:45;;;;;;;12.23;10.10;;;;;;;22.19;75.37;99285.47;3645261;39;20407;-65
2021/06/30 06:21:25;;;;;;;14.15;9.60;;;;;;;22.26;75.75;99295.53;3637538;39;20447;-64
2021/06/30 06:24:05;;;;;;;14.75;10.57;;;;;;;22.39;75.86;99295.97;3601415;39;20484;-65
2021/06/30 06:26:47;;;;;;;14.38;10.43;;;;;;;22.48;75.71;99298.50;3614536;39;20702;-63
2021/06/30 06:29:27;;;;;;;10.82;9.70;;;;;;;22.59;75.09;99299.25;3639395;39;20485;-61
2021/06/30 06:32:08;;;;;;;10.40;9.25;;;;;;;22.69;74.52;99302.63;3622399;39;20441;-59
2021/06/30 06:34:49;;;;;;;14.27;9.38;;;;;;;22.74;75.20;99316.38;3620367;39;20835;-62
2021/06/30 06:37:29;;;;;;;12.55;9.60;;;;;;;23.01;76.50;99323.38;3611259;39;20450;-64
2021/06/30 06:40:10;;;;;;;12.48;9.23;;;;;;;24.05;78.33;99312.25;3631417;39;20447;-65
2021/06/30 06:42:52;;;;;;;9.93;8.48;;;;;;;25.14;76.46;99309.88;3642551;39;20431;-63
2021/06/30 06:45:33;;;;;;;8.90;7.65;;;;;;;25.90;73.42;99311.78;3619559;39;20435;-62
2021/06/30 06:48:13;;;;;;;9.00;7.40;;;;;;;26.40;71.72;99313.06;3613525;39;20445;-64
2021/06/30 06:50:52;;;;;;;8.23;6.93;;;;;;;26.97;71.11;99323.19;3640778;39;20459;-59
2021/06/30 06:53:32;;;;;;;6.50;5.75;;;;;;;27.67;68.64;99311.88;3635616;39;20682;-59
2021/06/30 06:56:18;;;;;;;6.90;6.22;;;;;;;28.42;66.17;99302.41;3631822;31;20705;-58
2021/06/30 06:58:58;;;;;;;7.50;5.93;;;;;;;29.25;64.45;99308.72;3635116;39;20427;-62
2021/06/30 07:01:40;;;;;;;7.15;5.40;;;;;;;29.90;61.23;99299.97;3632302;39;20451;-65
2021/06/30 07:04:21;;;;;;;6.00;5.03;;;;;;;30.41;57.88;99293.97;3621583;39;20438;-63
2021/06/30 07:07:01;;;;;;;7.13;5.70;;;;;;;31.37;53.67;99291.44;3641929;39;20431;-63
2021/06/30 07:09:41;;;;;;;7.65;4.75;;;;;;;32.23;51.68;99296.28;3619825;39;20434;-61
2021/06/30 07:12:20;;;;;;;9.15;5.13;;;;;;;33.01;47.78;99287.59;3629543;39;20434;-62
2021/06/30 07:15:01;;;;;;;4.88;4.22;;;;;;;33.39;45.70;99295.50;3637323;39;20713;-62
2021/06/30 07:17:42;;;;;;;5.97;4.40;;;;;;;33.77;44.88;99294.34;3640356;39;20720;-62
2021/06/30 07:20:21;;;;;;;4.82;4.20;;;;;;;34.00;43.50;99294.44;3609299;39;20712;-62
2021/06/30 07:23:01;;;;;;;8.07;4.70;;;;;;;33.71;42.72;99298.78;3581174;39;20476;-68
2021/06/30 07:25:42;;;;;;;6.95;4.32;;;;;;;33.23;42.65;99290.66;3595457;39;20449;-58
2021/06/30 07:28:22;;;;;;;4.57;4.03;;;;;;;33.67;41.71;99294.06;3641633;39;20427;-57
2021/06/30 07:31:02;;;;;;;4.80;4.30;;;;;;;34.47;40.42;99298.03;3637486;39;20443;-68
2021/06/30 07:33:42;;;;;;;5.60;4.28;;;;;;;34.80;38.99;99294.69;3636415;39;20435;-58
2021/06/30 07:36:22;;;;;;;5.80;4.43;;;;;;;35.29;38.01;99294.34;3618451;39;20465;-58
2021/06/30 07:39:03;;;;;;;6.40;4.10;;;;;;;35.40;37.92;99288.06;3621721;39;20847;-60
2021/06/30 07:41:43;;;;;;;6.80;4.28;;;;;;;36.13;36.84;99284.47;3637877;39;20695;-61
2021/06/30 07:44:23;;;;;;;6.57;4.90;;;;;;;37.16;34.32;99282.13;3642432;39;20692;-59
2021/06/30 07:47:03;;;;;;;5.65;4.28;;;;;;;37.50;33.64;99282.81;3637585;39;20434;-58
2021/06/30 07:49:42;;;;;;;6.55;4.13;;;;;;;37.61;32.88;99290.03;3615163;39;20455;-63
2021/06/30 07:52:22;;;;;;;5.38;4.82;;;;;;;37.51;32.70;99284.47;3621283;39;20426;-62
2021/06/30 07:55:02;;;;;;;4.97;4.13;;;;;;;37.46;32.34;99296.16;3641025;39;20456;-50
2021/06/30 07:57:40;;;;;;;6.85;4.82;;;;;;;37.39;32.59;99302.94;3613027;39;1482678;-57
2021/06/30 08:00:20;;;;;;;6.30;4.70;;;;;;;37.17;32.13;99300.19;3618487;39;20825;-59
2021/06/30 08:03:00;;;;;;;6.03;4.60;;;;;;;36.71;32.31;99293.28;3621760;39;20837;-53
2021/06/30 08:05:40;;;;;;;5.72;4.72;;;;;;;36.18;33.25;99308.28;3634624;39;20705;-48
2021/06/30 08:08:19;;;;;;;7.15;4.82;;;;;;;35.78;33.66;99313.84;3619749;39;20441;-60
2021/06/30 08:10:59;;;;;;;5.72;4.32;;;;;;;35.72;34.38;99304.75;3617924;39;20438;-61
2021/06/30 13:25:12;;;;;;;4.03;3.00;;;;;;;29.16;41.30;99272.16;3599694;39;20457;-52
2021/06/30 13:28:06;;;;;;;6.57;3.40;;;;;;;29.51;40.59;99275.59;3612667;39;20420;-56
2021/06/30 13:36:42;;;;;;;4.28;3.42;;;;;;;30.27;38.89;99285.03;3629597;39;20423;-57
2021/06/30 13:39:22;;;;;;;3.15;2.85;;;;;;;30.45;38.15;99284.41;3623375;39;20436;-54
2021/06/30 13:42:02;;;;;;;3.03;2.78;;;;;;;30.58;37.48;99276.25;3611684;39;20442;-55
2021/06/30 13:44:41;;;;;;;3.75;2.95;;;;;;;30.66;36.87;99285.22;3640513;39;20452;-47
2021/06/30 13:47:22;;;;;;;3.38;3.08;;;;;;;30.72;36.37;99292.50;3635053;39;20448;-51
2021/06/30 13:50:01;;;;;;;3.53;3.00;;;;;;;30.79;35.83;99296.81;3619386;39;20445;-57
2021/06/30 13:52:42;;;;;;;3.40;3.10;;;;;;;30.86;35.64;99289.53;3598606;39;20474;-57
2021/06/30 13:55:25;;;;;;;4.55;2.58;;;;;;;30.92;35.13;99288.69;3606977;39;21498;-58
2021/06/30 13:58:06;;;;;;;4.05;2.60;;;;;;;30.95;34.38;99292.84;3599087;39;20464;-57
2021/06/30 14:00:47;;;;;;;6.50;4.30;;;;;;;30.97;34.66;99290.75;3567705;40;20469;-55
2021/06/30 14:03:27;;;;;;;3.42;2.90;;;;;;;30.99;34.58;99288.66;3642335;39;20443;-48
2021/06/30 14:06:08;;;;;;;2.70;2.22;;;;;;;30.98;33.74;99287.00;3616796;39;20531;-53
2021/06/30 14:08:48;;;;;;;3.90;2.60;;;;;;;30.99;33.91;99293.22;3633700;39;20443;-54
2021/06/30 14:11:29;;;;;;;3.90;2.20;;;;;;;30.98;33.20;99281.56;3633940;39;20439;-56
2021/06/30 14:14:09;;;;;;;2.55;2.20;;;;;;;30.99;33.41;99279.69;3618434;39;20419;-55
2021/06/30 14:16:49;;;;;;;2.40;1.90;;;;;;;31.00;33.06;99278.66;3620999;39;20835;-56
2021/06/30 14:19:29;;;;;;;3.28;2.35;;;;;;;31.00;32.90;99278.66;3641032;39;20469;-53
2021/06/30 14:22:10;;;;;;;2.85;2.15;;;;;;;30.98;32.93;99273.47;3561901;32;20455;-55
2021/06/30 14:24:53;;;;;;;2.88;2.50;;;;;;;30.93;33.00;99278.69;3619482;39;20439;-60
2021/06/30 14:27:33;;;;;;;4.55;2.30;;;;;;;30.88;32.75;99287.44;3641384;39;20391;-61
2021/06/30 14:30:17;;;;;;;4.22;2.65;;;;;;;30.84;32.74;99290.81;3638519;39;20866;-61
2021/06/30 14:33:00;;;;;;;5.70;2.95;;;;;;;30.80;33.20;99293.06;3631742;39;20434;-61
2021/06/30 14:35:41;;;;;;;4.38;2.60;;;;;;;30.77;33.23;99292.69;3625764;39;20441;-61
2021/06/30 14:38:21;;;;;;;3.15;2.60;;;;;;;30.73;33.11;99286.88;3632497;39;20436;-61
2021/06/30 14:41:03;;;;;;;2.67;2.40;;;;;;;30.71;33.58;99285.41;3633791;39;20711;-55
2021/06/30 14:43:43;;;;;;;2.50;2.30;;;;;;;30.70;33.27;99290.00;3624112;39;20458;-53
2021/06/30 14:46:23;;;;;;;2.97;2.20;;;;;;;30.70;33.51;99290.00;3640307;39;20988;-54
2021/06/30 14:49:04;;;;;;;1.90;1.77;;;;;;;30.70;34.07;99289.16;3574460;39;20446;-55
2021/06/30 14:51:44;;;;;;;2.30;2.10;;;;;;;30.68;34.06;99286.69;3581674;39;20494;-56
2021/06/30 14:54:24;;;;;;;2.40;2.20;;;;;;;30.68;34.02;99286.69;3620849;39;20430;-53
2021/06/30 14:57:05;;;;;;;4.63;3.00;;;;;;;30.66;34.43;99293.34;3619758;39;20442;-57
2021/06/30 14:59:47;;;;;;;2.22;2.03;;;;;;;30.63;34.04;99290.03;3640006;39;20457;-55
2021/06/30 15:02:28;;;;;;;2.38;2.17;;;;;;;30.64;34.44;99288.16;3609138;39;20435;-58
2021/06/30 15:05:09;;;;;;;3.50;2.10;;;;;;;30.63;33.83;99291.91;3631933;39;20804;-53
2021/06/30 15:07:51;;;;;;;2.25;2.05;;;;;;;30.62;34.05;99304.59;3606678;39;20756;-53
2021/06/30 15:10:31;;;;;;;2.50;2.25;;;;;;;30.61;34.32;99311.03;3640757;39;20383;-54
2021/06/30 15:13:10;;;;;;;3.55;2.33;;;;;;;30.61;33.93;99308.34;3628177;39;20436;-62
2021/06/30 15:15:50;;;;;;;4.22;2.30;;;;;;;30.62;33.65;99315.41;3629540;39;20427;-61
2021/06/30 15:18:30;;;;;;;3.50;3.00;;;;;;;30.62;34.06;99307.28;3640722;39;20662;-65
2021/06/30 15:21:10;;;;;;;4.20;3.33;;;;;;;30.62;33.92;99312.72;3630458;39;20453;-62
2021/06/30 15:23:50;;;;;;;3.38;2.40;;;;;;;30.60;33.60;99314.72;3640281;39;20442;-62
2021/06/30 15:26:28;;;;;;;2.30;2.10;;;;;;;30.59;33.95;99315.78;3591511;39;1488099;-62
2021/06/30 15:29:08;;;;;;;2.90;2.47;;;;;;;30.58;34.25;99311.41;3643093;39;20450;-62
2021/06/30 15:31:50;;;;;;;3.38;2.67;;;;;;;30.54;34.35;99315.59;3611529;39;20427;-61
2021/06/30 15:34:30;;;;;;;3.40;2.20;;;;;;;30.51;34.24;99326.81;3642270;39;20439;-62
2021/06/30 15:37:10;;;;;;;2.67;2.28;;;;;;;30.50;34.36;99322.47;3610677;39;20450;-58
2021/06/30 15:39:50;;;;;;;3.40;2.50;;;;;;;30.52;34.04;99325.78;3622326;39;20426;-62
2021/06/30 15:42:31;;;;;;;2.28;2.08;;;;;;;30.49;33.70;99328.09;3635349;39;20436;-62
2021/06/30 15:45:12;;;;;;;3.30;2.50;;;;;;;30.45;33.89;99318.72;3592116;39;1458186;-61
2021/06/30 15:47:49;;;;;;;2.47;2.28;;;;;;;30.43;34.40;99321.66;3605333;39;1573646;-62
2021/06/30 15:50:29;;;;;;;2.38;2.17;;;;;;;30.40;34.30;99319.34;3636514;39;20463;-61
2021/06/30 15:53:09;;;;;;;5.15;2.40;;;;;;;30.41;34.29;99307.50;3643035;39;20443;-62
2021/06/30 15:55:55;;;;;;;2.55;1.92;;;;;;;30.42;34.28;99314.56;3632878;39;20037;-61
2021/06/30 15:58:49;;;;;;;4.72;1.98;;;;;;;30.36;34.18;99315.38;3610950;39;20456;-62
2021/06/30 16:01:29;;;;;;;2.35;2.15;;;;;;;30.34;34.63;99312.06;3635134;39;20448;-62
2021/06/30 16:04:10;;;;;;;7.70;2.45;;;;;;;30.31;34.72;99323.31;3635442;39;20706;-62
2021/06/30 16:06:52;;;;;;;4.13;3.10;;;;;;;30.27;34.54;99317.50;3616456;39;20544;-62
2021/06/30 16:09:32;;;;;;;2.63;2.42;;;;;;;30.25;34.77;99318.75;3638278;39;20435;-63
2021/06/30 16:12:15;;;;;;;3.10;2.47;;;;;;;30.27;34.78;99312.09;3635093;39;20492;-61
2021/06/30 16:14:56;;;;;;;2.35;2.15;;;;;;;30.30;35.07;99311.66;3636926;39;20459;-60
2021/06/30 16:17:40;;;;;;;3.47;2.30;;;;;;;30.33;34.92;99305.00;3643087;39;20495;-61
2021/06/30 16:20:19;;;;;;;3.33;2.20;;;;;;;30.39;35.12;99304.16;3606902;39;20934;-61
2021/06/30 16:23:01;;;;;;;3.35;2.35;;;;;;;30.43;35.11;99302.72;3602855;39;20432;-61
2021/06/30 16:25:40;;;;;;;4.70;2.33;;;;;;;30.47;34.92;99301.25;3624058;39;20888;-61
2021/06/30 16:28:21;;;;;;;4.32;2.38;;;;;;;30.51;34.64;99297.06;3635027;39;20442;-61
2021/06/30 16:31:02;;;;;;;3.20;2.47;;;;;;;30.52;34.47;99301.44;3628305;39;20453;-55
2021/06/30 16:33:42;;;;;;;3.20;2.58;;;;;;;30.51;34.96;99302.50;3631146;39;20843;-61
2021/06/30 16:36:23;;;;;;;4.32;3.30;;;;;;;30.50;34.60;99300.00;3628774;39;20456;-57
2021/06/30 16:39:07;;;;;;;7.40;5.57;;;;;;;30.50;35.16;99298.13;3623853;39;20445;-61
2021/06/30 16:41:48;;;;;;;4.75;4.13;;;;;;;30.50;35.03;99295.41;3630502;39;20460;-52
2021/06/30 16:44:29;;;;;;;5.55;4.00;;;;;;;30.49;34.98;99291.06;3610280;39;20576;-59
2021/06/30 16:47:10;;;;;;;7.40;3.58;;;;;;;30.48;35.21;99285.84;3611168;31;20455;-60
2021/06/30 16:49:50;;;;;;;3.20;2.90;;;;;;;30.45;34.97;99287.09;3610827;39;20888;-51
2021/06/30 16:52:31;;;;;;;4.28;2.72;;;;;;;30.42;35.59;99284.81;3628583;39;20349;-53
2021/06/30 16:55:11;;;;;;;4.22;2.72;;;;;;;30.37;35.35;99284.59;3621081;39;20441;-55
2021/06/30 16:57:51;;;;;;;4.38;2.90;;;;;;;30.31;35.28;99280.03;3625303;39;20477;-55
2021/06/30 17:00:31;;;;;;;5.60;3.15;;;;;;;30.26;35.34;99282.56;3641005;31;20698;-58
2021/06/30 17:03:11;;;;;;;2.78;2.50;;;;;;;30.21;35.89;99274.25;3641543;39;20424;-59
2021/06/30 17:05:50;;;;;;;3.47;3.00;;;;;;;30.16;36.05;99266.75;3623199;39;20441;-58
2021/06/30 17:08:30;;;;;;;7.00;4.55;;;;;;;30.10;35.87;99272.16;3634612;39;20703;-61
2021/06/30 17:11:10;;;;;;;3.08;2.67;;;;;;;30.02;36.35;99274.00;3635008;39;20687;-60
2021/06/30 17:13:50;;;;;;;4.70;2.70;;;;;;;29.97;36.57;99273.78;3636535;39;20428;-54
2021/06/30 17:16:30;;;;;;;4.75;2.70;;;;;;;29.93;36.75;99272.53;3604317;39;20411;-53
2021/06/30 17:19:09;;;;;;;4.47;2.97;;;;;;;29.90;36.43;99272.13;3643926;39;20431;-58
2021/06/30 17:21:49;;;;;;;2.60;2.20;;;;;;;29.87;36.87;99267.97;3610519;39;20430;-50
2021/06/30 17:24:31;;;;;;;2.60;2.40;;;;;;;29.84;36.64;99267.56;3641541;39;20444;-54
2021/06/30 17:27:12;;;;;;;4.03;2.58;;;;;;;29.80;37.21;99266.31;3639207;31;20780;-50
2021/06/30 17:29:53;;;;;;;2.85;2.55;;;;;;;29.76;36.78;99265.88;3617640;39;20434;-49
2021/06/30 17:32:33;;;;;;;5.90;3.08;;;;;;;29.72;37.30;99270.03;3631641;39;20697;-51
2021/06/30 17:35:14;;;;;;;3.08;2.70;;;;;;;29.68;37.37;99271.47;3619807;39;20711;-52
2021/06/30 17:37:55;;;;;;;5.35;2.50;;;;;;;29.65;37.40;99269.19;3639499;39;20435;-54
2021/06/30 17:40:36;;;;;;;4.15;2.80;;;;;;;29.61;37.36;99268.78;3627655;39;20729;-53
2021/06/30 17:43:18;;;;;;;3.30;2.67;;;;;;;29.57;37.74;99272.06;3603389;39;20456;-54
2021/06/30 17:45:57;;;;;;;2.90;2.60;;;;;;;29.53;37.82;99268.94;3636433;39;20467;-51
2021/06/30 17:48:38;;;;;;;10.13;2.95;;;;;;;29.50;37.65;99269.38;3634983;39;20436;-51
2021/06/30 17:51:18;;;;;;;3.95;3.08;;;;;;;29.47;38.03;99267.06;3624503;39;20457;-50
2021/06/30 17:53:58;;;;;;;3.10;2.70;;;;;;;29.44;38.11;99276.38;3634853;39;20826;-54